sensor_id;sensor_type;location;lat;lon;timestamp;P1;durP1;ratioP1;P2;durP2;ratioP2
52104;SDS011;38103;42.776;23.112;2023-03-31T00:00:39;14.90;;;4.22;;
52104;SDS011;38103;42.776;23.112;2023-03-31T00:03:05;19.17;;;4.65;;
52104;SDS011;38103;42.776;23.112;2023-03-31T00:05:35;19.60;;;4.20;;
52104;SDS011;38103;42.776;23.112;2023-03-31T00:08:01;17.17;;;5.18;;
52104;SDS011;38103;42.776;23.112;2023-03-31T00:10:27;20.02;;;5.25;;
52104;SDS011;38103;42.776;23.112;2023-03-31T00:12:56;19.42;;;5.00;;
52104;SDS011;38103;42.776;23.112;2023-03-31T00:15:22;24.40;;;5.32;;
52104;SDS011;38103;42.776;23.112;2023-03-31T00:17:47;18.45;;;4.90;;
52104;SDS011;38103;42.776;23.112;2023-03-31T00:20:13;17.70;;;5.30;;
52104;SDS011;38103;42.776;23.112;2023-03-31T00:22:39;18.77;;;5.13;;
52104;SDS011;38103;42.776;23.112;2023-03-31T00:25:07;21.85;;;5.25;;
52104;SDS011;38103;42.776;23.112;2023-03-31T00:27:33;16.25;;;5.13;;
52104;SDS011;38103;42.776;23.112;2023-03-31T00:29:59;17.70;;;4.60;;
52104;SDS011;38103;42.776;23.112;2023-03-31T00:32:25;16.95;;;4.47;;
52104;SDS011;38103;42.776;23.112;2023-03-31T00:34:50;18.38;;;5.07;;
52104;SDS011;38103;42.776;23.112;2023-03-31T00:37:15;17.35;;;5.40;;
52104;SDS011;38103;42.776;23.112;2023-03-31T00:39:41;25.98;;;6.88;;
52104;SDS011;38103;42.776;23.112;2023-03-31T00:42:08;20.70;;;5.93;;
52104;SDS011;38103;42.776;23.112;2023-03-31T00:44:38;19.75;;;5.70;;
52104;SDS011;38103;42.776;23.112;2023-03-31T00:47:37;20.90;;;5.72;;
52104;SDS011;38103;42.776;23.112;2023-03-31T00:50:12;21.02;;;5.47;;
52104;SDS011;38103;42.776;23.112;2023-03-31T00:52:43;21.55;;;6.50;;
52104;SDS011;38103;42.776;23.112;2023-03-31T00:55:12;20.83;;;5.78;;
52104;SDS011;38103;42.776;23.112;2023-03-31T00:57:41;30.08;;;5.63;;
52104;SDS011;38103;42.776;23.112;2023-03-31T01:00:11;19.80;;;5.38;;
52104;SDS011;38103;42.776;23.112;2023-03-31T01:02:44;25.23;;;5.80;;
52104;SDS011;38103;42.776;23.112;2023-03-31T01:05:21;24.55;;;5.95;;
52104;SDS011;38103;42.776;23.112;2023-03-31T01:07:51;25.38;;;5.55;;
52104;SDS011;38103;42.776;23.112;2023-03-31T01:10:19;25.75;;;5.78;;
52104;SDS011;38103;42.776;23.112;2023-03-31T01:12:47;20.58;;;6.10;;
52104;SDS011;38103;42.776;23.112;2023-03-31T01:15:16;21.10;;;6.30;;
52104;SDS011;38103;42.776;23.112;2023-03-31T01:17:42;17.92;;;5.72;;
52104;SDS011;38103;42.776;23.112;2023-03-31T01:23:15;25.33;;;5.57;;
52104;SDS011;38103;42.776;23.112;2023-03-31T01:47:00;16.00;;;4.70;;
52104;SDS011;38103;42.776;23.112;2023-03-31T01:52:14;21.08;;;5.13;;
52104;SDS011;38103;42.776;23.112;2023-03-31T02:02:36;11.75;;;3.88;;
52104;SDS011;38103;42.776;23.112;2023-03-31T02:05:21;12.27;;;4.30;;
52104;SDS011;38103;42.776;23.112;2023-03-31T02:07:52;13.20;;;3.83;;
52104;SDS011;38103;42.776;23.112;2023-03-31T02:10:37;15.52;;;4.15;;
52104;SDS011;38103;42.776;23.112;2023-03-31T02:13:06;14.73;;;3.83;;
52104;SDS011;38103;42.776;23.112;2023-03-31T02:15:35;13.63;;;4.07;;
52104;SDS011;38103;42.776;23.112;2023-03-31T02:18:05;14.52;;;4.25;;
52104;SDS011;38103;42.776;23.112;2023-03-31T02:20:36;12.15;;;3.90;;
52104;SDS011;38103;42.776;23.112;2023-03-31T02:23:05;12.32;;;3.50;;
52104;SDS011;38103;42.776;23.112;2023-03-31T02:25:33;13.95;;;3.78;;
52104;SDS011;38103;42.776;23.112;2023-03-31T02:28:08;13.77;;;3.80;;
52104;SDS011;38103;42.776;23.112;2023-03-31T02:30:42;11.23;;;3.60;;
52104;SDS011;38103;42.776;23.112;2023-03-31T02:33:09;13.38;;;3.35;;
52104;SDS011;38103;42.776;23.112;2023-03-31T02:35:35;13.18;;;3.60;;
52104;SDS011;38103;42.776;23.112;2023-03-31T02:38:00;13.02;;;3.30;;
52104;SDS011;38103;42.776;23.112;2023-03-31T02:40:26;12.20;;;3.65;;
52104;SDS011;38103;42.776;23.112;2023-03-31T02:42:52;13.05;;;3.72;;
52104;SDS011;38103;42.776;23.112;2023-03-31T02:48:01;12.18;;;4.18;;
52104;SDS011;38103;42.776;23.112;2023-03-31T02:50:28;10.82;;;3.60;;
52104;SDS011;38103;42.776;23.112;2023-03-31T02:53:09;11.25;;;3.65;;
52104;SDS011;38103;42.776;23.112;2023-03-31T03:01:34;9.43;;;3.38;;
52104;SDS011;38103;42.776;23.112;2023-03-31T03:06:56;10.75;;;3.30;;
52104;SDS011;38103;42.776;23.112;2023-03-31T03:10:16;13.00;;;3.80;;
52104;SDS011;38103;42.776;23.112;2023-03-31T03:15:15;15.07;;;3.58;;
52104;SDS011;38103;42.776;23.112;2023-03-31T03:18:00;12.70;;;3.88;;
52104;SDS011;38103;42.776;23.112;2023-03-31T03:20:27;11.48;;;3.47;;
52104;SDS011;38103;42.776;23.112;2023-03-31T03:22:57;10.60;;;3.30;;
52104;SDS011;38103;42.776;23.112;2023-03-31T03:25:23;10.88;;;3.50;;
52104;SDS011;38103;42.776;23.112;2023-03-31T03:27:49;10.55;;;3.65;;
52104;SDS011;38103;42.776;23.112;2023-03-31T03:30:17;12.63;;;3.50;;
52104;SDS011;38103;42.776;23.112;2023-03-31T03:32:42;10.05;;;3.88;;
52104;SDS011;38103;42.776;23.112;2023-03-31T03:35:08;10.18;;;3.35;;
52104;SDS011;38103;42.776;23.112;2023-03-31T03:37:34;11.35;;;3.50;;
52104;SDS011;38103;42.776;23.112;2023-03-31T03:40:00;10.57;;;3.65;;
52104;SDS011;38103;42.776;23.112;2023-03-31T03:42:25;14.27;;;3.20;;
52104;SDS011;38103;42.776;23.112;2023-03-31T03:44:50;13.18;;;3.80;;
52104;SDS011;38103;42.776;23.112;2023-03-31T03:47:16;11.73;;;3.20;;
52104;SDS011;38103;42.776;23.112;2023-03-31T03:49:41;11.90;;;3.15;;
52104;SDS011;38103;42.776;23.112;2023-03-31T03:52:07;10.27;;;3.15;;
52104;SDS011;38103;42.776;23.112;2023-03-31T03:54:32;15.98;;;3.85;;
52104;SDS011;38103;42.776;23.112;2023-03-31T03:56:57;10.48;;;3.17;;
52104;SDS011;38103;42.776;23.112;2023-03-31T03:59:23;10.20;;;3.53;;
52104;SDS011;38103;42.776;23.112;2023-03-31T04:01:48;11.23;;;3.80;;
52104;SDS011;38103;42.776;23.112;2023-03-31T04:04:14;10.80;;;3.35;;
52104;SDS011;38103;42.776;23.112;2023-03-31T04:06:40;12.63;;;4.00;;
52104;SDS011;38103;42.776;23.112;2023-03-31T04:09:05;10.13;;;3.50;;
52104;SDS011;38103;42.776;23.112;2023-03-31T04:11:30;11.60;;;3.50;;
52104;SDS011;38103;42.776;23.112;2023-03-31T04:13:56;17.70;;;3.95;;
52104;SDS011;38103;42.776;23.112;2023-03-31T04:16:22;12.20;;;3.90;;
52104;SDS011;38103;42.776;23.112;2023-03-31T04:18:50;12.45;;;3.42;;
52104;SDS011;38103;42.776;23.112;2023-03-31T04:21:17;13.25;;;3.50;;
52104;SDS011;38103;42.776;23.112;2023-03-31T04:23:49;11.13;;;3.50;;
52104;SDS011;38103;42.776;23.112;2023-03-31T04:26:23;9.10;;;3.35;;
52104;SDS011;38103;42.776;23.112;2023-03-31T04:28:57;9.48;;;3.38;;
52104;SDS011;38103;42.776;23.112;2023-03-31T04:31:24;14.27;;;4.00;;
52104;SDS011;38103;42.776;23.112;2023-03-31T04:33:51;14.00;;;4.30;;
52104;SDS011;38103;42.776;23.112;2023-03-31T04:36:17;13.10;;;4.00;;
52104;SDS011;38103;42.776;23.112;2023-03-31T04:38:43;13.65;;;3.85;;
52104;SDS011;38103;42.776;23.112;2023-03-31T04:41:11;12.98;;;3.60;;
52104;SDS011;38103;42.776;23.112;2023-03-31T04:43:37;13.38;;;4.07;;
52104;SDS011;38103;42.776;23.112;2023-03-31T04:46:02;13.60;;;3.92;;
52104;SDS011;38103;42.776;23.112;2023-03-31T04:48:28;10.95;;;3.80;;
52104;SDS011;38103;42.776;23.112;2023-03-31T04:50:53;13.38;;;3.88;;
52104;SDS011;38103;42.776;23.112;2023-03-31T04:53:19;11.15;;;3.75;;
52104;SDS011;38103;42.776;23.112;2023-03-31T04:55:44;13.88;;;4.00;;
52104;SDS011;38103;42.776;23.112;2023-03-31T04:58:10;15.30;;;4.70;;
52104;SDS011;38103;42.776;23.112;2023-03-31T05:00:35;14.93;;;4.53;;
52104;SDS011;38103;42.776;23.112;2023-03-31T05:03:00;14.98;;;4.30;;
52104;SDS011;38103;42.776;23.112;2023-03-31T05:05:26;17.92;;;4.88;;
52104;SDS011;38103;42.776;23.112;2023-03-31T05:07:51;14.70;;;4.45;;
52104;SDS011;38103;42.776;23.112;2023-03-31T05:10:17;16.73;;;4.35;;
52104;SDS011;38103;42.776;23.112;2023-03-31T05:12:42;15.52;;;4.70;;
52104;SDS011;38103;42.776;23.112;2023-03-31T05:15:08;19.10;;;4.53;;
52104;SDS011;38103;42.776;23.112;2023-03-31T05:17:34;17.65;;;4.95;;
52104;SDS011;38103;42.776;23.112;2023-03-31T05:20:00;18.25;;;5.15;;
52104;SDS011;38103;42.776;23.112;2023-03-31T05:22:26;13.25;;;4.55;;
52104;SDS011;38103;42.776;23.112;2023-03-31T05:24:51;26.30;;;4.43;;
52104;SDS011;38103;42.776;23.112;2023-03-31T05:27:17;14.55;;;3.78;;
52104;SDS011;38103;42.776;23.112;2023-03-31T05:29:43;12.70;;;3.80;;
52104;SDS011;38103;42.776;23.112;2023-03-31T05:32:08;15.93;;;4.70;;
52104;SDS011;38103;42.776;23.112;2023-03-31T05:34:34;14.98;;;4.20;;
52104;SDS011;38103;42.776;23.112;2023-03-31T05:37:00;11.90;;;3.53;;
52104;SDS011;38103;42.776;23.112;2023-03-31T05:39:26;16.60;;;4.53;;
52104;SDS011;38103;42.776;23.112;2023-03-31T05:41:56;15.27;;;3.97;;
52104;SDS011;38103;42.776;23.112;2023-03-31T05:44:22;17.83;;;4.40;;
52104;SDS011;38103;42.776;23.112;2023-03-31T05:46:47;18.45;;;4.75;;
52104;SDS011;38103;42.776;23.112;2023-03-31T05:49:13;20.08;;;4.38;;
52104;SDS011;38103;42.776;23.112;2023-03-31T05:51:40;17.98;;;4.13;;
52104;SDS011;38103;42.776;23.112;2023-03-31T05:54:05;12.88;;;4.15;;
52104;SDS011;38103;42.776;23.112;2023-03-31T05:56:31;12.80;;;3.53;;
52104;SDS011;38103;42.776;23.112;2023-03-31T05:58:58;12.80;;;3.85;;
52104;SDS011;38103;42.776;23.112;2023-03-31T06:01:24;13.63;;;4.20;;
52104;SDS011;38103;42.776;23.112;2023-03-31T06:03:49;13.13;;;4.25;;
52104;SDS011;38103;42.776;23.112;2023-03-31T06:06:15;14.73;;;4.78;;
52104;SDS011;38103;42.776;23.112;2023-03-31T06:08:41;15.18;;;4.55;;
52104;SDS011;38103;42.776;23.112;2023-03-31T06:11:12;14.50;;;4.35;;
52104;SDS011;38103;42.776;23.112;2023-03-31T06:13:43;13.80;;;3.95;;
52104;SDS011;38103;42.776;23.112;2023-03-31T06:16:10;16.38;;;4.30;;
52104;SDS011;38103;42.776;23.112;2023-03-31T06:18:37;11.80;;;3.75;;
52104;SDS011;38103;42.776;23.112;2023-03-31T06:21:02;19.27;;;3.83;;
52104;SDS011;38103;42.776;23.112;2023-03-31T06:23:28;12.85;;;4.00;;
52104;SDS011;38103;42.776;23.112;2023-03-31T06:25:57;16.20;;;4.53;;
52104;SDS011;38103;42.776;23.112;2023-03-31T06:28:25;19.85;;;4.53;;
52104;SDS011;38103;42.776;23.112;2023-03-31T06:30:50;10.63;;;3.60;;
52104;SDS011;38103;42.776;23.112;2023-03-31T06:33:23;12.02;;;3.75;;
52104;SDS011;38103;42.776;23.112;2023-03-31T06:35:48;12.23;;;3.75;;
52104;SDS011;38103;42.776;23.112;2023-03-31T06:38:13;12.77;;;4.10;;
52104;SDS011;38103;42.776;23.112;2023-03-31T06:40:39;12.32;;;3.70;;
52104;SDS011;38103;42.776;23.112;2023-03-31T06:43:06;15.90;;;4.18;;
52104;SDS011;38103;42.776;23.112;2023-03-31T06:45:31;12.88;;;3.65;;
52104;SDS011;38103;42.776;23.112;2023-03-31T06:47:57;14.27;;;3.78;;
52104;SDS011;38103;42.776;23.112;2023-03-31T06:50:22;14.00;;;3.95;;
52104;SDS011;38103;42.776;23.112;2023-03-31T06:52:47;14.70;;;3.88;;
52104;SDS011;38103;42.776;23.112;2023-03-31T06:55:16;14.27;;;3.60;;
52104;SDS011;38103;42.776;23.112;2023-03-31T06:57:42;10.50;;;3.75;;
52104;SDS011;38103;42.776;23.112;2023-03-31T07:00:07;13.25;;;3.50;;
52104;SDS011;38103;42.776;23.112;2023-03-31T07:02:33;10.60;;;3.33;;
52104;SDS011;38103;42.776;23.112;2023-03-31T07:04:58;16.17;;;3.78;;
52104;SDS011;38103;42.776;23.112;2023-03-31T07:07:24;13.43;;;3.08;;
52104;SDS011;38103;42.776;23.112;2023-03-31T07:09:49;15.48;;;3.55;;
52104;SDS011;38103;42.776;23.112;2023-03-31T07:12:14;17.38;;;3.38;;
52104;SDS011;38103;42.776;23.112;2023-03-31T07:14:40;11.40;;;3.72;;
52104;SDS011;38103;42.776;23.112;2023-03-31T07:17:05;12.80;;;3.42;;
52104;SDS011;38103;42.776;23.112;2023-03-31T07:19:31;13.18;;;3.50;;
52104;SDS011;38103;42.776;23.112;2023-03-31T07:21:56;12.55;;;3.50;;
52104;SDS011;38103;42.776;23.112;2023-03-31T07:24:21;11.90;;;3.38;;
52104;SDS011;38103;42.776;23.112;2023-03-31T07:26:47;10.48;;;2.95;;
52104;SDS011;38103;42.776;23.112;2023-03-31T07:29:12;8.68;;;2.88;;
52104;SDS011;38103;42.776;23.112;2023-03-31T07:31:38;12.05;;;3.53;;
52104;SDS011;38103;42.776;23.112;2023-03-31T07:34:03;11.68;;;3.47;;
52104;SDS011;38103;42.776;23.112;2023-03-31T07:36:29;10.95;;;3.17;;
52104;SDS011;38103;42.776;23.112;2023-03-31T07:38:55;11.63;;;3.85;;
52104;SDS011;38103;42.776;23.112;2023-03-31T07:41:20;11.27;;;3.17;;
52104;SDS011;38103;42.776;23.112;2023-03-31T07:43:47;13.52;;;3.10;;
52104;SDS011;38103;42.776;23.112;2023-03-31T07:46:20;15.10;;;3.45;;
52104;SDS011;38103;42.776;23.112;2023-03-31T07:48:48;11.52;;;3.53;;
52104;SDS011;38103;42.776;23.112;2023-03-31T07:51:15;10.07;;;3.08;;
52104;SDS011;38103;42.776;23.112;2023-03-31T07:53:43;9.80;;;2.90;;
52104;SDS011;38103;42.776;23.112;2023-03-31T07:56:09;10.85;;;3.30;;
52104;SDS011;38103;42.776;23.112;2023-03-31T07:58:35;12.23;;;3.63;;
52104;SDS011;38103;42.776;23.112;2023-03-31T08:01:00;12.52;;;3.30;;
52104;SDS011;38103;42.776;23.112;2023-03-31T08:03:26;12.13;;;3.15;;
52104;SDS011;38103;42.776;23.112;2023-03-31T08:05:52;12.25;;;3.42;;
52104;SDS011;38103;42.776;23.112;2023-03-31T08:08:18;11.27;;;3.00;;
52104;SDS011;38103;42.776;23.112;2023-03-31T08:10:45;12.05;;;3.00;;
52104;SDS011;38103;42.776;23.112;2023-03-31T08:13:11;12.07;;;3.67;;
52104;SDS011;38103;42.776;23.112;2023-03-31T08:15:36;8.68;;;3.00;;
52104;SDS011;38103;42.776;23.112;2023-03-31T08:18:02;11.90;;;3.30;;
52104;SDS011;38103;42.776;23.112;2023-03-31T08:20:28;12.75;;;3.15;;
52104;SDS011;38103;42.776;23.112;2023-03-31T08:22:54;13.93;;;3.45;;
52104;SDS011;38103;42.776;23.112;2023-03-31T08:25:19;10.45;;;2.95;;
52104;SDS011;38103;42.776;23.112;2023-03-31T08:27:45;10.45;;;2.83;;
52104;SDS011;38103;42.776;23.112;2023-03-31T08:30:14;10.95;;;3.00;;
52104;SDS011;38103;42.776;23.112;2023-03-31T08:32:41;12.15;;;3.20;;
52104;SDS011;38103;42.776;23.112;2023-03-31T08:35:06;11.43;;;3.35;;
52104;SDS011;38103;42.776;23.112;2023-03-31T08:37:32;10.65;;;3.10;;
52104;SDS011;38103;42.776;23.112;2023-03-31T08:39:57;9.90;;;2.97;;
52104;SDS011;38103;42.776;23.112;2023-03-31T08:47:42;12.02;;;3.22;;
52104;SDS011;38103;42.776;23.112;2023-03-31T08:50:11;12.77;;;3.25;;
52104;SDS011;38103;42.776;23.112;2023-03-31T08:52:44;11.43;;;3.05;;
52104;SDS011;38103;42.776;23.112;2023-03-31T08:55:56;9.27;;;3.00;;
52104;SDS011;38103;42.776;23.112;2023-03-31T08:58:34;11.50;;;2.85;;
52104;SDS011;38103;42.776;23.112;2023-03-31T09:03:30;10.80;;;3.28;;
52104;SDS011;38103;42.776;23.112;2023-03-31T09:06:05;13.18;;;3.35;;
52104;SDS011;38103;42.776;23.112;2023-03-31T09:08:41;15.93;;;3.08;;
52104;SDS011;38103;42.776;23.112;2023-03-31T09:19:07;9.57;;;3.13;;
52104;SDS011;38103;42.776;23.112;2023-03-31T09:21:40;11.10;;;3.20;;
52104;SDS011;38103;42.776;23.112;2023-03-31T09:24:19;11.07;;;3.00;;
52104;SDS011;38103;42.776;23.112;2023-03-31T09:26:51;9.95;;;3.15;;
52104;SDS011;38103;42.776;23.112;2023-03-31T09:29:21;9.90;;;3.22;;
52104;SDS011;38103;42.776;23.112;2023-03-31T09:32:27;13.85;;;3.03;;
52104;SDS011;38103;42.776;23.112;2023-03-31T09:34:59;10.63;;;2.80;;
52104;SDS011;38103;42.776;23.112;2023-03-31T09:37:36;11.43;;;2.70;;
52104;SDS011;38103;42.776;23.112;2023-03-31T09:40:03;9.57;;;2.85;;
52104;SDS011;38103;42.776;23.112;2023-03-31T09:42:34;11.25;;;3.25;;
52104;SDS011;38103;42.776;23.112;2023-03-31T09:45:01;9.02;;;2.85;;
52104;SDS011;38103;42.776;23.112;2023-03-31T09:50:14;9.88;;;2.67;;
52104;SDS011;38103;42.776;23.112;2023-03-31T09:52:41;11.23;;;2.88;;
52104;SDS011;38103;42.776;23.112;2023-03-31T09:55:21;13.63;;;3.40;;
52104;SDS011;38103;42.776;23.112;2023-03-31T09:57:53;12.20;;;3.23;;
52104;SDS011;38103;42.776;23.112;2023-03-31T10:00:19;11.48;;;3.00;;
52104;SDS011;38103;42.776;23.112;2023-03-31T10:02:55;14.55;;;3.70;;
52104;SDS011;38103;42.776;23.112;2023-03-31T10:05:32;15.00;;;3.17;;
52104;SDS011;38103;42.776;23.112;2023-03-31T10:08:24;9.85;;;2.67;;
52104;SDS011;38103;42.776;23.112;2023-03-31T10:11:16;12.30;;;3.25;;
52104;SDS011;38103;42.776;23.112;2023-03-31T10:16:20;8.45;;;2.80;;
52104;SDS011;38103;42.776;23.112;2023-03-31T10:18:47;10.50;;;2.90;;
52104;SDS011;38103;42.776;23.112;2023-03-31T10:21:21;10.90;;;2.78;;
52104;SDS011;38103;42.776;23.112;2023-03-31T10:23:49;11.35;;;2.88;;
52104;SDS011;38103;42.776;23.112;2023-03-31T10:26:16;12.00;;;2.80;;
52104;SDS011;38103;42.776;23.112;2023-03-31T10:28:45;10.18;;;2.80;;
52104;SDS011;38103;42.776;23.112;2023-03-31T10:31:14;10.77;;;3.00;;
52104;SDS011;38103;42.776;23.112;2023-03-31T10:33:41;12.80;;;2.70;;
52104;SDS011;38103;42.776;23.112;2023-03-31T10:36:18;10.55;;;2.90;;
52104;SDS011;38103;42.776;23.112;2023-03-31T10:38:45;10.43;;;3.10;;
52104;SDS011;38103;42.776;23.112;2023-03-31T10:41:16;13.07;;;3.00;;
52104;SDS011;38103;42.776;23.112;2023-03-31T10:43:47;10.50;;;2.80;;
52104;SDS011;38103;42.776;23.112;2023-03-31T10:46:19;10.52;;;3.08;;
52104;SDS011;38103;42.776;23.112;2023-03-31T10:48:45;10.80;;;3.22;;
52104;SDS011;38103;42.776;23.112;2023-03-31T10:51:18;12.70;;;2.90;;
52104;SDS011;38103;42.776;23.112;2023-03-31T10:53:46;9.15;;;2.63;;
52104;SDS011;38103;42.776;23.112;2023-03-31T11:07:43;9.57;;;2.70;;
52104;SDS011;38103;42.776;23.112;2023-03-31T11:23:43;13.32;;;3.47;;
52104;SDS011;38103;42.776;23.112;2023-03-31T11:29:43;14.65;;;3.20;;
52104;SDS011;38103;42.776;23.112;2023-03-31T11:32:32;9.25;;;2.85;;
52104;SDS011;38103;42.776;23.112;2023-03-31T11:41:10;24.80;;;10.13;;
52104;SDS011;38103;42.776;23.112;2023-03-31T11:43:58;24.58;;;9.18;;
52104;SDS011;38103;42.776;23.112;2023-03-31T11:49:28;20.58;;;7.15;;
52104;SDS011;38103;42.776;23.112;2023-03-31T11:52:17;18.90;;;6.90;;
52104;SDS011;38103;42.776;23.112;2023-03-31T11:54:54;15.02;;;5.20;;
52104;SDS011;38103;42.776;23.112;2023-03-31T11:57:26;15.93;;;5.15;;
52104;SDS011;38103;42.776;23.112;2023-03-31T12:05:33;14.05;;;3.70;;
52104;SDS011;38103;42.776;23.112;2023-03-31T12:10:38;12.32;;;3.10;;
52104;SDS011;38103;42.776;23.112;2023-03-31T12:16:00;12.20;;;4.10;;
52104;SDS011;38103;42.776;23.112;2023-03-31T12:18:52;9.75;;;2.92;;
52104;SDS011;38103;42.776;23.112;2023-03-31T12:21:19;13.95;;;4.30;;
52104;SDS011;38103;42.776;23.112;2023-03-31T12:23:47;14.95;;;3.97;;
52104;SDS011;38103;42.776;23.112;2023-03-31T12:29:02;14.10;;;3.33;;
52104;SDS011;38103;42.776;23.112;2023-03-31T12:31:38;15.35;;;3.40;;
52104;SDS011;38103;42.776;23.112;2023-03-31T12:34:11;13.00;;;3.58;;
52104;SDS011;38103;42.776;23.112;2023-03-31T12:45:01;11.25;;;3.03;;
52104;SDS011;38103;42.776;23.112;2023-03-31T12:56:25;10.15;;;3.33;;
52104;SDS011;38103;42.776;23.112;2023-03-31T12:58:51;11.93;;;3.20;;
52104;SDS011;38103;42.776;23.112;2023-03-31T13:01:20;9.93;;;2.67;;
52104;SDS011;38103;42.776;23.112;2023-03-31T13:11:21;9.50;;;3.10;;
52104;SDS011;38103;42.776;23.112;2023-03-31T13:14:06;11.07;;;2.70;;
52104;SDS011;38103;42.776;23.112;2023-03-31T13:16:39;15.43;;;3.20;;
52104;SDS011;38103;42.776;23.112;2023-03-31T13:19:05;13.82;;;3.10;;
52104;SDS011;38103;42.776;23.112;2023-03-31T13:21:30;11.10;;;3.55;;
52104;SDS011;38103;42.776;23.112;2023-03-31T13:24:15;8.98;;;2.60;;
52104;SDS011;38103;42.776;23.112;2023-03-31T13:26:46;12.70;;;2.90;;
52104;SDS011;38103;42.776;23.112;2023-03-31T13:34:24;17.23;;;3.40;;
52104;SDS011;38103;42.776;23.112;2023-03-31T13:36:58;14.02;;;3.00;;
52104;SDS011;38103;42.776;23.112;2023-03-31T13:50:52;12.13;;;3.08;;
52104;SDS011;38103;42.776;23.112;2023-03-31T14:07:54;11.57;;;3.15;;
52104;SDS011;38103;42.776;23.112;2023-03-31T14:13:06;12.52;;;3.28;;
52104;SDS011;38103;42.776;23.112;2023-03-31T14:15:40;9.88;;;3.03;;
52104;SDS011;38103;42.776;23.112;2023-03-31T14:18:14;16.88;;;3.25;;
52104;SDS011;38103;42.776;23.112;2023-03-31T14:28:48;11.80;;;2.80;;
52104;SDS011;38103;42.776;23.112;2023-03-31T14:37:12;12.43;;;3.20;;
52104;SDS011;38103;42.776;23.112;2023-03-31T14:39:45;12.68;;;2.92;;
52104;SDS011;38103;42.776;23.112;2023-03-31T14:42:16;10.35;;;3.20;;
52104;SDS011;38103;42.776;23.112;2023-03-31T14:44:47;14.48;;;3.58;;
52104;SDS011;38103;42.776;23.112;2023-03-31T14:47:13;10.00;;;3.00;;
52104;SDS011;38103;42.776;23.112;2023-03-31T14:49:40;12.65;;;2.90;;
52104;SDS011;38103;42.776;23.112;2023-03-31T14:52:18;11.75;;;3.20;;
52104;SDS011;38103;42.776;23.112;2023-03-31T14:54:47;9.25;;;2.60;;
52104;SDS011;38103;42.776;23.112;2023-03-31T14:57:26;10.43;;;2.88;;
52104;SDS011;38103;42.776;23.112;2023-03-31T14:59:55;14.10;;;2.78;;
52104;SDS011;38103;42.776;23.112;2023-03-31T15:02:26;9.98;;;3.13;;
52104;SDS011;38103;42.776;23.112;2023-03-31T15:05:00;11.82;;;3.08;;
52104;SDS011;38103;42.776;23.112;2023-03-31T15:07:28;10.60;;;3.22;;
52104;SDS011;38103;42.776;23.112;2023-03-31T15:09:53;11.15;;;3.50;;
52104;SDS011;38103;42.776;23.112;2023-03-31T15:12:19;10.25;;;3.13;;
52104;SDS011;38103;42.776;23.112;2023-03-31T15:14:51;11.52;;;2.90;;
52104;SDS011;38103;42.776;23.112;2023-03-31T15:17:25;12.05;;;3.00;;
52104;SDS011;38103;42.776;23.112;2023-03-31T15:19:54;12.25;;;3.45;;
52104;SDS011;38103;42.776;23.112;2023-03-31T15:22:21;14.73;;;3.80;;
52104;SDS011;38103;42.776;23.112;2023-03-31T15:24:50;11.38;;;3.45;;
52104;SDS011;38103;42.776;23.112;2023-03-31T15:29:57;13.98;;;3.40;;
52104;SDS011;38103;42.776;23.112;2023-03-31T15:32:33;13.10;;;3.67;;
52104;SDS011;38103;42.776;23.112;2023-03-31T15:35:00;12.00;;;3.70;;
52104;SDS011;38103;42.776;23.112;2023-03-31T15:37:38;12.65;;;3.55;;
52104;SDS011;38103;42.776;23.112;2023-03-31T15:40:14;12.85;;;4.00;;
52104;SDS011;38103;42.776;23.112;2023-03-31T15:42:42;11.13;;;2.95;;
52104;SDS011;38103;42.776;23.112;2023-03-31T15:45:23;11.60;;;2.85;;
52104;SDS011;38103;42.776;23.112;2023-03-31T15:48:14;15.10;;;2.92;;
52104;SDS011;38103;42.776;23.112;2023-03-31T15:50:58;11.85;;;3.13;;
52104;SDS011;38103;42.776;23.112;2023-03-31T15:55:57;9.02;;;2.97;;
52104;SDS011;38103;42.776;23.112;2023-03-31T15:58:45;15.40;;;4.30;;
52104;SDS011;38103;42.776;23.112;2023-03-31T16:01:12;19.90;;;6.30;;
52104;SDS011;38103;42.776;23.112;2023-03-31T16:03:40;15.15;;;5.20;;
52104;SDS011;38103;42.776;23.112;2023-03-31T16:06:49;14.90;;;4.55;;
52104;SDS011;38103;42.776;23.112;2023-03-31T16:09:10;15.63;;;4.45;;
52104;SDS011;38103;42.776;23.112;2023-03-31T16:14:05;10.98;;;3.80;;
52104;SDS011;38103;42.776;23.112;2023-03-31T16:16:34;12.27;;;3.80;;
52104;SDS011;38103;42.776;23.112;2023-03-31T16:19:01;11.27;;;3.42;;
52104;SDS011;38103;42.776;23.112;2023-03-31T16:21:41;13.23;;;4.10;;
52104;SDS011;38103;42.776;23.112;2023-03-31T16:24:11;13.05;;;3.78;;
52104;SDS011;38103;42.776;23.112;2023-03-31T16:26:37;12.38;;;3.30;;
52104;SDS011;38103;42.776;23.112;2023-03-31T16:29:03;16.63;;;3.38;;
52104;SDS011;38103;42.776;23.112;2023-03-31T16:31:31;11.48;;;4.00;;
52104;SDS011;38103;42.776;23.112;2023-03-31T16:34:00;10.07;;;3.10;;
52104;SDS011;38103;42.776;23.112;2023-03-31T16:36:27;12.23;;;3.50;;
52104;SDS011;38103;42.776;23.112;2023-03-31T16:38:52;9.82;;;3.10;;
52104;SDS011;38103;42.776;23.112;2023-03-31T16:41:18;12.55;;;3.42;;
52104;SDS011;38103;42.776;23.112;2023-03-31T16:43:45;10.15;;;3.00;;
52104;SDS011;38103;42.776;23.112;2023-03-31T16:46:11;11.88;;;3.35;;
52104;SDS011;38103;42.776;23.112;2023-03-31T16:48:36;11.32;;;3.50;;
52104;SDS011;38103;42.776;23.112;2023-03-31T16:51:02;10.80;;;3.58;;
52104;SDS011;38103;42.776;23.112;2023-03-31T16:53:32;14.05;;;3.30;;
52104;SDS011;38103;42.776;23.112;2023-03-31T16:56:01;13.18;;;3.22;;
52104;SDS011;38103;42.776;23.112;2023-03-31T16:58:34;13.93;;;3.30;;
52104;SDS011;38103;42.776;23.112;2023-03-31T17:01:00;12.65;;;3.25;;
52104;SDS011;38103;42.776;23.112;2023-03-31T17:03:27;18.60;;;4.30;;
52104;SDS011;38103;42.776;23.112;2023-03-31T17:05:53;15.00;;;3.90;;
52104;SDS011;38103;42.776;23.112;2023-03-31T17:08:20;13.30;;;3.80;;
52104;SDS011;38103;42.776;23.112;2023-03-31T17:10:51;12.85;;;3.63;;
52104;SDS011;38103;42.776;23.112;2023-03-31T17:13:16;16.35;;;3.42;;
52104;SDS011;38103;42.776;23.112;2023-03-31T17:15:42;11.77;;;3.30;;
52104;SDS011;38103;42.776;23.112;2023-03-31T17:18:07;11.38;;;3.47;;
52104;SDS011;38103;42.776;23.112;2023-03-31T17:20:33;12.45;;;3.35;;
52104;SDS011;38103;42.776;23.112;2023-03-31T17:22:58;11.88;;;3.58;;
52104;SDS011;38103;42.776;23.112;2023-03-31T17:25:24;13.75;;;4.35;;
52104;SDS011;38103;42.776;23.112;2023-03-31T17:27:50;12.00;;;4.53;;
52104;SDS011;38103;42.776;23.112;2023-03-31T17:30:15;12.00;;;3.33;;
52104;SDS011;38103;42.776;23.112;2023-03-31T17:32:41;11.00;;;3.55;;
52104;SDS011;38103;42.776;23.112;2023-03-31T17:35:06;15.00;;;4.50;;
52104;SDS011;38103;42.776;23.112;2023-03-31T17:37:34;13.43;;;3.35;;
52104;SDS011;38103;42.776;23.112;2023-03-31T17:40:01;10.80;;;3.47;;
52104;SDS011;38103;42.776;23.112;2023-03-31T17:42:28;12.13;;;3.97;;
52104;SDS011;38103;42.776;23.112;2023-03-31T17:44:54;12.10;;;3.80;;
52104;SDS011;38103;42.776;23.112;2023-03-31T17:47:20;15.02;;;3.90;;
52104;SDS011;38103;42.776;23.112;2023-03-31T17:49:45;14.35;;;3.70;;
52104;SDS011;38103;42.776;23.112;2023-03-31T17:52:11;15.45;;;4.18;;
52104;SDS011;38103;42.776;23.112;2023-03-31T17:54:37;13.18;;;3.95;;
52104;SDS011;38103;42.776;23.112;2023-03-31T17:57:03;10.07;;;3.30;;